Time;durP1;ratioP1;P1;durP2;ratioP2;P2;SDS_P1;SDS_P2;PMS_P1;PMS_P2;Temp;Humidity;BMP_temperature;BMP_pressure;BME280_temperature;BME280_humidity;BME280_pressure;Samples;Min_cycle;Max_cycle;Signal;HPM_P1;HPM_P2
2020/12/30 00:00:27;;;;;;;17.13;15.63;;;3.00;99.90;;;;;;5120383;27;20291;-83
2020/12/30 00:02:54;;;;;;;2.80;2.60;;;3.10;99.90;;;;;;5120581;27;20208;-79
2020/12/30 00:05:20;;;;;;;2.30;2.20;;;3.10;99.90;;;;;;5112889;27;20614;-78
2020/12/30 00:07:48;;;;;;;2.50;2.30;;;3.10;99.90;;;;;;5127803;27;20205;-78
2020/12/30 00:10:17;;;;;;;2.43;2.13;;;3.10;99.90;;;;;;5128125;27;20217;-77
2020/12/30 00:12:44;;;;;;;2.50;2.33;;;3.10;99.90;;;;;;5119767;27;20202;-75
2020/12/30 00:15:11;;;;;;;2.57;2.37;;;3.10;99.90;;;;;;5120079;27;20202;-75
2020/12/30 00:17:39;;;;;;;4.07;2.37;;;3.10;99.90;;;;;;5119016;27;21133;-75
2020/12/30 00:20:07;;;;;;;2.33;2.13;;;3.10;99.90;;;;;;5118483;27;20237;-75
2020/12/30 00:22:33;;;;;;;2.43;2.23;;;3.10;99.90;;;;;;5120499;27;20225;-75
2020/12/30 00:25:00;;;;;;;2.60;2.50;;;3.00;99.90;;;;;;5119177;27;20196;-75
2020/12/30 00:27:27;;;;;;;2.33;2.23;;;3.00;99.90;;;;;;5109482;28;20285;-75
2020/12/30 00:29:53;;;;;;;2.60;2.40;;;3.00;99.90;;;;;;5110076;28;20213;-76
2020/12/30 00:32:20;;;;;;;2.40;2.20;;;3.00;99.90;;;;;;5109797;28;20694;-79
2020/12/30 00:34:46;;;;;;;3.03;2.47;;;3.00;99.90;;;;;;5110198;28;20209;-78
2020/12/30 00:37:13;;;;;;;2.50;2.30;;;3.00;99.90;;;;;;5110144;28;20247;-78
2020/12/30 00:39:39;;;;;;;2.30;2.20;;;2.90;99.90;;;;;;5109912;28;20236;-79
2020/12/30 00:42:06;;;;;;;2.47;2.30;;;3.00;99.90;;;;;;5109811;28;20210;-80
2020/12/30 00:44:33;;;;;;;3.20;2.20;;;2.90;99.90;;;;;;5110088;28;20205;-79
2020/12/30 00:47:00;;;;;;;2.80;2.40;;;2.90;99.90;;;;;;5110193;28;20202;-77
2020/12/30 00:49:27;;;;;;;2.60;2.33;;;2.80;99.90;;;;;;5109580;28;20266;-77
2020/12/30 00:51:55;;;;;;;2.43;2.23;;;2.80;99.90;;;;;;5109540;28;20210;-77
2020/12/30 00:54:21;;;;;;;3.70;2.40;;;2.80;99.90;;;;;;5109923;28;20214;-76
2020/12/30 00:56:48;;;;;;;2.57;2.33;;;2.80;99.90;;;;;;5109055;28;20238;-77
2020/12/30 00:59:16;;;;;;;2.77;2.57;;;2.80;99.90;;;;;;5109745;28;20237;-78
2020/12/30 01:01:42;;;;;;;2.87;2.67;;;2.70;99.90;;;;;;5109286;28;20210;-78
2020/12/30 01:04:09;;;;;;;3.53;2.67;;;2.70;99.90;;;;;;5109908;28;20214;-78
2020/12/30 01:06:35;;;;;;;3.13;2.93;;;2.70;99.90;;;;;;5109405;28;20317;-78
2020/12/30 01:09:04;;;;;;;3.83;2.67;;;2.70;99.90;;;;;;5109140;28;20289;-78
2020/12/30 01:11:30;;;;;;;2.93;2.73;;;2.60;99.90;;;;;;5109108;28;20226;-78
2020/12/30 01:13:57;;;;;;;2.90;2.70;;;2.60;99.90;;;;;;5109325;28;20733;-76
2020/12/30 01:16:26;;;;;;;2.53;2.33;;;2.60;99.90;;;;;;5109373;28;20664;-75
2020/12/30 01:18:52;;;;;;;2.77;2.60;;;2.60;99.90;;;;;;5109575;28;20281;-75
2020/12/30 01:21:18;;;;;;;2.87;2.67;;;2.50;99.90;;;;;;5109463;28;20289;-76
2020/12/30 01:23:45;;;;;;;2.67;2.47;;;2.50;99.90;;;;;;5108955;28;20206;-75
2020/12/30 01:26:11;;;;;;;2.90;2.70;;;2.50;99.90;;;;;;5109134;28;20736;-75
2020/12/30 01:28:38;;;;;;;3.03;2.83;;;2.60;99.90;;;;;;5109065;28;20660;-75
2020/12/30 01:31:04;;;;;;;3.13;2.83;;;2.50;99.90;;;;;;5109124;28;20296;-77
2020/12/30 01:33:31;;;;;;;3.03;2.83;;;2.50;99.90;;;;;;5109125;28;20285;-76
2020/12/30 01:35:58;;;;;;;3.10;2.70;;;2.50;99.90;;;;;;5109229;28;20203;-77
2020/12/30 01:38:24;;;;;;;3.17;2.97;;;2.50;99.90;;;;;;5109098;28;20355;-76
2020/12/30 01:40:54;;;;;;;3.13;2.93;;;2.50;99.90;;;;;;5109025;28;20213;-77
2020/12/30 01:43:20;;;;;;;2.77;2.60;;;2.50;99.90;;;;;;5108848;28;20210;-76
2020/12/30 01:45:48;;;;;;;2.80;2.60;;;2.50;99.90;;;;;;5108653;28;20210;-77
2020/12/30 01:48:16;;;;;;;3.00;2.80;;;2.50;99.90;;;;;;5109085;28;20206;-77
2020/12/30 01:50:44;;;;;;;2.70;2.50;;;2.50;99.90;;;;;;5108961;28;20216;-76
2020/12/30 01:53:11;;;;;;;3.20;2.60;;;2.50;99.90;;;;;;5108665;28;20676;-76
2020/12/30 01:55:39;;;;;;;3.00;2.80;;;2.50;99.90;;;;;;5108666;28;20234;-77
2020/12/30 01:58:06;;;;;;;3.17;2.97;;;2.40;99.90;;;;;;5108383;28;20221;-76
2020/12/30 02:00:33;;;;;;;3.33;3.13;;;2.40;99.90;;;;;;5109145;28;20206;-77
2020/12/30 02:03:01;;;;;;;3.57;2.87;;;2.30;99.90;;;;;;5108988;28;20206;-77
2020/12/30 02:05:30;;;;;;;3.20;3.00;;;2.20;99.90;;;;;;5109031;28;20686;-77
2020/12/30 02:07:59;;;;;;;3.30;3.10;;;2.20;99.90;;;;;;5109023;28;20216;-78
2020/12/30 02:10:27;;;;;;;3.20;2.90;;;2.30;99.90;;;;;;5108818;28;20222;-77
2020/12/30 02:12:54;;;;;;;2.90;2.70;;;2.40;99.90;;;;;;5108807;28;20569;-79
2020/12/30 02:15:25;;;;;;;3.27;2.97;;;2.40;99.90;;;;;;5109047;28;20732;-79
2020/12/30 02:17:51;;;;;;;2.67;2.47;;;2.40;99.90;;;;;;5109342;28;20599;-80
2020/12/30 02:20:18;;;;;;;2.90;2.70;;;2.50;99.90;;;;;;5108298;28;20967;-80
2020/12/30 02:22:49;;;;;;;2.67;2.47;;;2.50;99.90;;;;;;5108309;28;20202;-79
2020/12/30 02:25:16;;;;;;;2.83;2.47;;;2.40;99.90;;;;;;5108638;28;20197;-80
2020/12/30 02:27:42;;;;;;;2.77;2.57;;;2.50;99.90;;;;;;5108286;28;20202;-80
2020/12/30 02:30:08;;;;;;;2.73;2.53;;;2.50;99.90;;;;;;5108884;28;20262;-79
2020/12/30 02:32:35;;;;;;;2.90;2.70;;;2.50;99.90;;;;;;5108627;28;20214;-80
2020/12/30 02:35:01;;;;;;;3.30;3.10;;;2.60;99.90;;;;;;5108255;28;20548;-78
2020/12/30 02:37:27;;;;;;;3.33;2.70;;;2.60;99.90;;;;;;5108147;28;20210;-76
2020/12/30 02:39:54;;;;;;;2.67;2.47;;;2.60;99.90;;;;;;5107871;28;20325;-76
2020/12/30 02:42:21;;;;;;;3.00;2.80;;;2.60;99.90;;;;;;5108281;28;20326;-76
2020/12/30 02:44:48;;;;;;;3.53;2.77;;;2.60;99.90;;;;;;5108090;28;20831;-75
2020/12/30 02:47:14;;;;;;;2.93;2.73;;;2.60;99.90;;;;;;5108088;28;20652;-76
2020/12/30 02:49:41;;;;;;;3.27;2.80;;;2.60;99.90;;;;;;5108394;28;20206;-75
2020/12/30 02:52:07;;;;;;;3.30;3.00;;;2.50;99.90;;;;;;5108500;28;20212;-75
2020/12/30 02:54:33;;;;;;;3.30;2.90;;;2.50;99.90;;;;;;5108392;28;20206;-78
2020/12/30 02:56:59;;;;;;;3.03;2.83;;;2.40;99.90;;;;;;5112168;27;20194;-77
2020/12/30 02:59:27;;;;;;;2.80;2.43;;;2.40;99.90;;;;;;5112278;28;20258;-78
2020/12/30 03:01:53;;;;;;;2.87;2.60;;;2.40;99.90;;;;;;5112043;28;20293;-78
2020/12/30 03:04:19;;;;;;;2.90;2.60;;;2.40;99.90;;;;;;5112468;28;20202;-78
2020/12/30 03:06:46;;;;;;;3.10;2.83;;;2.40;99.90;;;;;;5112010;28;20320;-78
2020/12/30 03:09:12;;;;;;;2.70;2.50;;;2.50;99.90;;;;;;5111722;28;20240;-78
2020/12/30 03:11:38;;;;;;;2.57;2.37;;;2.50;99.90;;;;;;5111410;28;20236;-77
2020/12/30 03:14:05;;;;;;;2.67;2.47;;;2.50;99.90;;;;;;5112001;28;20293;-78
2020/12/30 03:16:32;;;;;;;2.73;2.53;;;2.60;99.90;;;;;;5111797;28;20228;-78
2020/12/30 03:18:58;;;;;;;4.10;3.07;;;2.60;99.90;;;;;;5111906;28;20222;-78
2020/12/30 03:21:24;;;;;;;2.70;2.50;;;2.60;99.90;;;;;;5111624;28;20229;-77
2020/12/30 03:23:51;;;;;;;2.50;2.30;;;2.70;99.90;;;;;;5111678;28;20206;-76
2020/12/30 03:26:17;;;;;;;2.67;2.47;;;2.70;99.90;;;;;;5111822;28;20259;-76
2020/12/30 03:28:44;;;;;;;2.77;2.40;;;2.70;99.90;;;;;;5111345;28;20210;-76
2020/12/30 03:31:10;;;;;;;3.93;2.30;;;2.60;99.90;;;;;;5111480;28;20209;-76
2020/12/30 03:33:37;;;;;;;2.43;2.30;;;2.60;99.90;;;;;;5111402;28;20206;-76
2020/12/30 03:36:04;;;;;;;2.90;2.67;;;2.60;99.90;;;;;;5111550;28;20293;-76
2020/12/30 03:38:30;;;;;;;3.43;2.17;;;2.60;99.90;;;;;;5111265;28;20202;-79
2020/12/30 03:40:56;;;;;;;3.40;2.60;;;2.60;99.90;;;;;;5111662;28;20293;-76
2020/12/30 03:43:23;;;;;;;2.30;2.10;;;2.60;99.90;;;;;;5111153;28;20234;-76
2020/12/30 03:45:49;;;;;;;1.97;1.90;;;2.60;99.90;;;;;;5111179;28;20228;-77
2020/12/30 03:48:15;;;;;;;2.30;2.20;;;2.60;99.90;;;;;;5111240;28;20212;-77
2020/12/30 03:50:42;;;;;;;2.03;1.93;;;2.60;99.90;;;;;;5111265;28;20567;-77
2020/12/30 03:53:09;;;;;;;2.80;2.53;;;2.50;99.90;;;;;;5111162;28;20206;-77
2020/12/30 03:55:35;;;;;;;2.00;1.90;;;2.60;99.90;;;;;;5110795;28;20253;-77
2020/12/30 03:58:01;;;;;;;2.33;2.23;;;2.50;99.90;;;;;;5111165;28;20288;-77
2020/12/30 04:00:28;;;;;;;2.60;2.40;;;2.50;99.90;;;;;;5111137;27;20240;-77
2020/12/30 04:02:54;;;;;;;2.40;2.20;;;2.50;99.90;;;;;;5110953;28;20769;-77
2020/12/30 04:05:20;;;;;;;2.10;2.00;;;2.50;99.90;;;;;;5110618;28;20199;-77
2020/12/30 04:07:48;;;;;;;2.10;2.00;;;2.50;99.90;;;;;;5110870;28;20202;-77
2020/12/30 04:10:14;;;;;;;2.40;2.30;;;2.50;99.90;;;;;;5110921;28;20222;-79
2020/12/30 04:12:40;;;;;;;2.30;2.10;;;2.50;99.90;;;;;;5110407;28;20682;-78
2020/12/30 04:15:07;;;;;;;2.10;2.00;;;2.50;99.90;;;;;;5110845;28;20210;-78
2020/12/30 04:17:33;;;;;;;3.13;2.23;;;2.50;99.90;;;;;;5110950;28;20202;-79
2020/12/30 04:19:59;;;;;;;2.93;2.10;;;2.40;99.90;;;;;;5110893;28;20221;-78
2020/12/30 04:22:26;;;;;;;2.50;2.17;;;2.50;99.90;;;;;;5110590;28;20206;-79
2020/12/30 04:24:53;;;;;;;2.10;2.00;;;2.50;99.90;;;;;;5110380;28;20248;-78
2020/12/30 04:27:19;;;;;;;2.50;2.30;;;2.50;99.90;;;;;;5110511;28;20210;-78
2020/12/30 04:29:45;;;;;;;2.90;2.70;;;2.50;99.90;;;;;;5110365;28;20234;-78
2020/12/30 04:32:12;;;;;;;2.50;2.30;;;2.60;99.90;;;;;;5110849;28;20235;-79
2020/12/30 04:34:38;;;;;;;2.43;2.10;;;2.60;99.90;;;;;;5110351;28;20210;-78
2020/12/30 04:37:04;;;;;;;2.43;2.33;;;2.50;99.90;;;;;;5110996;28;20225;-79
2020/12/30 04:39:31;;;;;;;2.10;2.00;;;2.50;99.90;;;;;;5110413;28;20410;-79
2020/12/30 04:42:00;;;;;;;2.20;2.00;;;2.50;99.90;;;;;;5110426;28;20301;-77
2020/12/30 04:44:30;;;;;;;2.43;2.20;;;2.60;99.90;;;;;;5110301;28;20209;-77
2020/12/30 04:46:59;;;;;;;3.03;2.33;;;2.50;99.90;;;;;;5110763;28;20254;-77
2020/12/30 04:49:25;;;;;;;2.50;2.30;;;2.50;99.90;;;;;;5109933;28;20205;-77
2020/12/30 04:51:53;;;;;;;2.60;2.30;;;2.50;99.90;;;;;;5109535;28;20608;-79
2020/12/30 04:54:21;;;;;;;2.33;2.17;;;2.50;99.90;;;;;;5109612;28;20216;-78
2020/12/30 04:56:58;;;;;;;2.23;2.10;;;2.50;99.90;;;;;;5109144;28;20237;-78
2020/12/30 04:59:28;;;;;;;2.30;2.10;;;2.50;99.90;;;;;;5109903;28;20243;-78
2020/12/30 05:02:03;;;;;;;3.00;2.40;;;2.50;99.90;;;;;;5109695;28;20206;-79
2020/12/30 05:04:30;;;;;;;2.40;2.20;;;2.50;99.90;;;;;;5109979;28;20196;-78
2020/12/30 05:07:07;;;;;;;2.60;2.40;;;2.50;99.90;;;;;;5109754;28;20255;-79
2020/12/30 05:09:35;;;;;;;2.40;2.20;;;2.50;99.90;;;;;;5109188;28;20221;-78
2020/12/30 05:12:08;;;;;;;2.03;1.93;;;2.50;99.90;;;;;;5109344;28;20202;-78
2020/12/30 05:14:35;;;;;;;2.30;2.20;;;2.50;99.90;;;;;;5109283;28;20531;-79
2020/12/30 05:17:03;;;;;;;3.77;2.10;;;2.40;99.90;;;;;;5108973;28;20208;-80
2020/12/30 05:19:31;;;;;;;2.83;2.50;;;2.40;99.90;;;;;;5109143;28;20323;-78
2020/12/30 05:21:57;;;;;;;3.13;1.93;;;2.40;99.90;;;;;;5109211;28;20202;-78
2020/12/30 05:24:24;;;;;;;2.80;2.20;;;2.40;99.90;;;;;;5109169;28;20616;-78
2020/12/30 05:26:51;;;;;;;2.90;2.67;;;2.20;99.90;;;;;;5108930;28;20683;-78
2020/12/30 05:29:20;;;;;;;2.47;2.27;;;2.20;99.90;;;;;;5109546;28;20247;-78
2020/12/30 05:31:50;;;;;;;2.70;2.50;;;2.20;99.90;;;;;;5109217;28;20293;-78
2020/12/30 05:34:17;;;;;;;2.30;2.13;;;2.20;99.90;;;;;;5109447;28;20190;-78
2020/12/30 05:36:45;;;;;;;2.67;2.47;;;2.20;99.90;;;;;;5109235;28;20202;-76
2020/12/30 05:39:19;;;;;;;2.73;2.50;;;2.20;99.90;;;;;;5109182;28;20282;-80
2020/12/30 05:41:45;;;;;;;2.30;2.20;;;2.10;99.90;;;;;;5109553;28;20190;-81
2020/12/30 05:44:17;;;;;;;2.90;2.70;;;2.20;99.90;;;;;;5109550;28;20293;-82
2020/12/30 05:46:45;;;;;;;3.17;2.73;;;2.20;99.90;;;;;;5109322;28;20717;-81
2020/12/30 05:49:29;;;;;;;2.70;2.50;;;2.20;99.90;;;;;;5109477;28;20202;-81
2020/12/30 05:51:57;;;;;;;3.67;2.50;;;2.20;99.90;;;;;;5109307;28;20251;-81
2020/12/30 05:54:23;;;;;;;3.47;2.70;;;2.20;99.90;;;;;;5109556;28;20210;-81
2020/12/30 05:56:49;;;;;;;2.73;2.53;;;2.20;99.90;;;;;;5109091;28;20619;-81
2020/12/30 05:59:21;;;;;;;2.87;2.67;;;2.20;99.90;;;;;;5108935;28;20830;-76
2020/12/30 06:01:50;;;;;;;3.30;2.27;;;2.20;99.90;;;;;;5108683;28;20200;-76
2020/12/30 06:04:18;;;;;;;3.53;2.60;;;2.20;99.90;;;;;;5109141;28;20295;-76
2020/12/30 06:06:46;;;;;;;2.23;2.13;;;2.20;99.90;;;;;;5108946;28;20206;-76
2020/12/30 06:09:16;;;;;;;2.90;2.50;;;2.30;99.90;;;;;;5108696;28;20236;-77
2020/12/30 06:11:52;;;;;;;3.10;2.60;;;2.20;99.90;;;;;;5108648;28;20187;-76
2020/12/30 06:14:19;;;;;;;2.77;2.40;;;2.30;99.90;;;;;;5108938;28;20197;-76
2020/12/30 06:16:45;;;;;;;3.93;2.60;;;2.20;99.90;;;;;;5108731;28;20210;-77
2020/12/30 06:19:13;;;;;;;2.40;2.20;;;2.20;99.90;;;;;;5108659;28;20247;-76
2020/12/30 06:21:46;;;;;;;2.67;2.47;;;2.20;99.90;;;;;;5108619;28;20213;-77
2020/12/30 06:24:14;;;;;;;2.47;2.33;;;2.20;99.90;;;;;;5108652;28;20241;-77
2020/12/30 06:26:41;;;;;;;2.80;2.60;;;2.20;99.90;;;;;;5108167;28;20210;-78
2020/12/30 06:29:13;;;;;;;2.70;2.33;;;2.20;99.90;;;;;;5110122;28;20202;-79
2020/12/30 06:31:44;;;;;;;2.70;2.50;;;2.20;99.90;;;;;;5112601;28;20205;-78
2020/12/30 06:34:11;;;;;;;3.17;2.53;;;2.20;99.90;;;;;;5112750;28;20289;-78
2020/12/30 06:36:38;;;;;;;2.73;2.60;;;2.10;99.90;;;;;;5112499;28;20596;-78
2020/12/30 06:39:25;;;;;;;3.20;2.50;;;2.10;99.90;;;;;;5112584;28;20278;-78
2020/12/30 06:41:59;;;;;;;3.03;2.60;;;2.10;99.90;;;;;;5107208;27;20293;-78
2020/12/30 06:44:40;;;;;;;2.67;2.47;;;2.10;99.90;;;;;;5112796;27;20212;-78
2020/12/30 06:47:08;;;;;;;3.37;2.43;;;2.10;99.90;;;;;;5112464;28;20194;-78
2020/12/30 06:49:35;;;;;;;2.47;2.30;;;2.10;99.90;;;;;;5112191;28;20644;-78
2020/12/30 06:52:02;;;;;;;3.87;2.60;;;2.10;99.90;;;;;;5111834;28;20233;-78
2020/12/30 06:54:55;;;;;;;2.53;2.30;;;2.10;99.90;;;;;;5112510;27;20292;-78
2020/12/30 06:57:38;;;;;;;2.67;2.47;;;2.10;99.90;;;;;;5075251;27;20208;-78
2020/12/30 07:00:33;;;;;;;2.93;2.50;;;2.10;99.90;;;;;;5111873;28;20700;-78
2020/12/30 07:03:14;;;;;;;2.77;2.57;;;2.10;99.90;;;;;;5112127;28;20210;-78
2020/12/30 07:05:41;;;;;;;2.83;2.63;;;2.10;99.90;;;;;;5111809;28;20284;-78
2020/12/30 07:08:08;;;;;;;2.70;2.50;;;2.00;99.90;;;;;;5111904;27;20213;-78
2020/12/30 07:10:41;;;;;;;3.20;2.90;;;1.90;99.90;;;;;;5112178;28;20222;-78
2020/12/30 07:13:07;;;;;;;3.47;2.80;;;1.90;99.90;;;;;;5112153;28;20194;-78
2020/12/30 07:15:34;;;;;;;3.27;3.00;;;1.90;99.90;;;;;;5111857;28;20206;-77
2020/12/30 07:18:04;;;;;;;2.97;2.73;;;1.90;99.90;;;;;;5111995;28;20202;-79
2020/12/30 07:20:39;;;;;;;3.37;3.07;;;1.90;99.90;;;;;;5111902;28;20359;-79
2020/12/30 07:23:10;;;;;;;3.30;3.00;;;1.90;99.90;;;;;;5111736;28;20553;-79
2020/12/30 07:25:36;;;;;;;3.77;2.90;;;1.90;99.90;;;;;;5112183;28;20191;-79
2020/12/30 07:28:04;;;;;;;3.30;2.80;;;2.00;99.90;;;;;;5111532;28;20212;-79
2020/12/30 07:30:32;;;;;;;3.27;2.97;;;2.00;99.90;;;;;;5111695;28;20251;-77
2020/12/30 07:32:59;;;;;;;4.30;2.53;;;2.00;99.90;;;;;;5111420;28;20718;-76
2020/12/30 07:35:26;;;;;;;4.80;3.10;;;2.00;99.90;;;;;;5111353;27;20206;-75
2020/12/30 07:37:53;;;;;;;3.40;3.20;;;2.00;99.90;;;;;;5111723;28;20289;-78
2020/12/30 07:40:20;;;;;;;3.10;2.90;;;2.00;99.90;;;;;;5110739;28;20225;-80
2020/12/30 07:42:56;;;;;;;3.47;3.17;;;2.00;99.90;;;;;;5111509;28;20206;-79
2020/12/30 07:45:23;;;;;;;3.67;2.90;;;2.00;99.90;;;;;;5111378;28;20200;-79
2020/12/30 07:47:49;;;;;;;4.53;3.07;;;2.00;99.90;;;;;;5111345;28;20255;-79
2020/12/30 07:50:16;;;;;;;3.30;3.00;;;2.00;99.90;;;;;;5111595;28;20202;-78
2020/12/30 07:52:42;;;;;;;3.50;3.20;;;2.00;99.90;;;;;;5111307;27;20232;-79
2020/12/30 07:55:08;;;;;;;3.27;3.07;;;2.00;99.90;;;;;;5111018;28;20230;-80
2020/12/30 07:57:36;;;;;;;3.30;3.00;;;2.00;99.90;;;;;;5111060;28;20262;-80
2020/12/30 08:00:03;;;;;;;4.07;3.43;;;2.00;99.90;;;;;;5110518;28;20711;-79
2020/12/30 08:02:30;;;;;;;3.50;3.20;;;2.00;99.90;;;;;;5111112;28;20245;-76
2020/12/30 08:05:01;;;;;;;4.03;2.90;;;2.10;99.90;;;;;;5110922;28;20206;-76
2020/12/30 08:07:29;;;;;;;3.60;3.30;;;2.10;99.90;;;;;;5110867;28;20221;-78
2020/12/30 08:09:56;;;;;;;3.57;3.30;;;2.10;99.90;;;;;;5110523;28;20719;-78
2020/12/30 08:12:23;;;;;;;4.30;3.30;;;2.10;99.90;;;;;;5110739;28;20213;-79
2020/12/30 08:14:53;;;;;;;2.97;2.77;;;2.10;99.90;;;;;;5110778;28;20214;-79
2020/12/30 08:17:21;;;;;;;3.70;3.40;;;2.10;99.90;;;;;;5110597;28;20202;-79
2020/12/30 08:19:49;;;;;;;3.37;2.83;;;2.10;99.90;;;;;;5110709;27;20598;-79
2020/12/30 08:22:16;;;;;;;3.40;3.10;;;2.20;99.90;;;;;;5110570;28;20297;-78
2020/12/30 08:24:45;;;;;;;3.30;3.10;;;2.30;99.90;;;;;;5110519;28;20205;-78
2020/12/30 08:27:12;;;;;;;3.33;3.13;;;2.30;99.90;;;;;;5110544;28;20288;-78
2020/12/30 08:29:40;;;;;;;3.47;3.27;;;2.30;99.90;;;;;;5110638;28;20202;-78
2020/12/30 08:32:15;;;;;;;3.30;3.10;;;2.40;99.90;;;;;;5110718;28;20241;-78
2020/12/30 08:34:45;;;;;;;3.60;3.30;;;2.40;99.90;;;;;;5110523;28;20190;-79
2020/12/30 08:37:15;;;;;;;3.17;2.97;;;2.40;99.90;;;;;;5110424;28;20348;-79
2020/12/30 08:39:50;;;;;;;4.47;3.40;;;2.50;99.90;;;;;;5109876;28;20214;-79
2020/12/30 08:42:55;;;;;;;3.80;3.50;;;2.60;99.90;;;;;;5110405;28;20602;-77
2020/12/30 08:45:26;;;;;;;3.53;3.23;;;2.60;99.90;;;;;;5110200;28;20229;-79
2020/12/30 08:47:55;;;;;;;3.47;3.20;;;2.70;99.90;;;;;;5109880;28;20954;-79
2020/12/30 08:50:24;;;;;;;3.17;2.93;;;2.80;99.90;;;;;;5109981;28;20202;-80
2020/12/30 08:52:51;;;;;;;3.90;3.13;;;2.90;99.90;;;;;;5109660;28;20206;-77
2020/12/30 08:55:17;;;;;;;5.80;3.63;;;2.90;99.90;;;;;;5109317;28;20308;-78
2020/12/30 08:57:44;;;;;;;3.83;3.53;;;3.00;99.90;;;;;;5109527;28;20198;-77
2020/12/30 09:00:15;;;;;;;3.73;3.43;;;3.10;99.90;;;;;;5110391;27;20214;-78
2020/12/30 09:02:42;;;;;;;3.47;3.17;;;3.10;99.90;;;;;;5119050;27;20334;-78
2020/12/30 09:05:10;;;;;;;3.40;3.10;;;3.20;99.90;;;;;;5124147;27;20198;-79
2020/12/30 09:07:37;;;;;;;2.97;2.77;;;3.20;99.90;;;;;;5109822;27;20675;-81
2020/12/30 09:10:09;;;;;;;3.77;3.47;;;3.30;99.90;;;;;;5109305;28;20226;-78
2020/12/30 09:12:37;;;;;;;3.17;2.97;;;3.30;99.90;;;;;;5118023;27;20275;-79
2020/12/30 09:15:05;;;;;;;3.37;3.13;;;3.40;99.90;;;;;;5117540;27;20198;-78
2020/12/30 09:17:31;;;;;;;3.50;3.20;;;3.40;99.90;;;;;;5109766;27;20250;-79
2020/12/30 09:20:10;;;;;;;2.90;2.70;;;3.40;99.90;;;;;;5107470;28;20403;-79
2020/12/30 09:22:37;;;;;;;3.03;2.83;;;3.50;99.90;;;;;;5109940;27;20210;-80
2020/12/30 09:25:04;;;;;;;3.00;2.80;;;3.50;99.90;;;;;;5107491;27;20198;-79
2020/12/30 09:27:34;;;;;;;3.07;2.87;;;3.60;99.90;;;;;;5114194;27;20201;-79
2020/12/30 09:30:14;;;;;;;3.03;2.80;;;3.60;99.90;;;;;;5119470;27;20235;-79
2020/12/30 09:32:43;;;;;;;4.30;3.13;;;3.60;99.90;;;;;;5127905;27;20201;-80
2020/12/30 09:35:11;;;;;;;3.10;2.90;;;3.70;99.90;;;;;;5127991;27;20204;-78
2020/12/30 09:37:39;;;;;;;3.27;3.00;;;3.70;99.90;;;;;;5127889;27;20269;-80
2020/12/30 09:40:10;;;;;;;3.27;3.00;;;3.80;99.90;;;;;;5127538;27;20669;-77
2020/12/30 09:42:38;;;;;;;2.70;2.53;;;3.90;99.90;;;;;;5127302;27;21001;-78
2020/12/30 09:45:06;;;;;;;4.17;2.83;;;4.00;99.90;;;;;;5126846;27;20742;-78
2020/12/30 09:47:33;;;;;;;3.50;2.80;;;4.00;99.90;;;;;;5123773;27;20553;-79
2020/12/30 09:49:59;;;;;;;3.43;3.13;;;4.10;99.90;;;;;;5123231;27;20249;-78
2020/12/30 09:52:26;;;;;;;3.00;2.80;;;4.10;99.90;;;;;;5114970;27;20226;-75
2020/12/30 09:54:53;;;;;;;11.13;10.23;;;4.20;99.90;;;;;;5115628;27;20221;-75
2020/12/30 09:57:19;;;;;;;4.30;3.90;;;4.40;99.90;;;;;;5114308;27;20280;-78
2020/12/30 09:59:45;;;;;;;3.20;3.00;;;4.50;99.90;;;;;;5114878;27;20231;-78
2020/12/30 10:02:12;;;;;;;3.83;3.10;;;4.60;99.90;;;;;;5116338;27;20201;-78
2020/12/30 10:04:40;;;;;;;3.40;3.17;;;4.70;99.90;;;;;;5114059;27;20208;-78
2020/12/30 10:07:06;;;;;;;4.07;3.40;;;4.80;99.90;;;;;;5114027;27;20668;-79
2020/12/30 10:09:33;;;;;;;3.20;2.90;;;4.80;99.90;;;;;;5116462;27;20308;-77
2020/12/30 10:12:00;;;;;;;3.27;3.07;;;4.90;99.90;;;;;;5114767;28;20198;-78
2020/12/30 10:14:26;;;;;;;3.30;3.03;;;4.90;99.90;;;;;;5117380;27;20201;-78
2020/12/30 10:16:52;;;;;;;3.27;2.97;;;5.00;99.90;;;;;;5114172;27;21021;-78
2020/12/30 10:19:19;;;;;;;4.50;2.80;;;5.00;99.90;;;;;;5115909;27;20635;-78
2020/12/30 10:21:45;;;;;;;2.80;2.60;;;5.10;99.90;;;;;;5115694;28;20755;-78
2020/12/30 10:24:12;;;;;;;3.30;2.87;;;5.20;99.90;;;;;;5114465;27;20205;-78
2020/12/30 10:26:39;;;;;;;3.47;3.27;;;5.30;99.90;;;;;;5117602;27;20201;-78
2020/12/30 10:29:05;;;;;;;4.53;3.40;;;5.30;99.90;;;;;;5115237;27;20222;-79
2020/12/30 10:31:32;;;;;;;3.10;2.90;;;5.30;99.90;;;;;;5118886;28;20276;-75
2020/12/30 10:33:58;;;;;;;3.50;3.20;;;5.40;99.90;;;;;;5122580;28;20197;-86
2020/12/30 10:36:29;;;;;;;3.67;3.37;;;5.30;99.90;;;;;;5128636;27;20200;-81
2020/12/30 10:38:56;;;;;;;3.23;3.03;;;5.30;99.90;;;;;;5128926;27;20189;-81
2020/12/30 10:41:22;;;;;;;2.77;2.63;;;5.40;99.90;;;;;;5129111;27;20210;-82
2020/12/30 10:43:49;;;;;;;2.97;2.80;;;5.50;99.90;;;;;;5129021;27;20288;-83
2020/12/30 10:46:17;;;;;;;3.20;3.00;;;5.50;99.90;;;;;;5129192;27;20319;-82
2020/12/30 10:48:44;;;;;;;3.17;2.93;;;5.50;99.90;;;;;;5129440;27;20297;-83
2020/12/30 10:51:11;;;;;;;3.27;2.97;;;5.60;99.90;;;;;;5129492;27;20652;-81
2020/12/30 10:53:37;;;;;;;3.20;2.90;;;5.60;99.90;;;;;;5129684;27;20312;-82
2020/12/30 10:56:04;;;;;;;4.60;3.40;;;5.60;99.90;;;;;;5128974;27;20237;-82
2020/12/30 10:58:30;;;;;;;3.87;3.47;;;5.60;99.90;;;;;;5129351;27;20209;-82
2020/12/30 11:00:57;;;;;;;2.73;2.53;;;5.60;99.90;;;;;;5129316;27;20225;-81
2020/12/30 11:03:24;;;;;;;2.90;2.70;;;5.80;99.90;;;;;;5129499;27;20292;-83
2020/12/30 11:05:50;;;;;;;3.20;3.00;;;5.80;99.90;;;;;;5129308;27;20218;-82
2020/12/30 11:08:17;;;;;;;3.43;3.13;;;5.90;99.90;;;;;;5129703;27;20250;-82
2020/12/30 11:10:43;;;;;;;4.20;3.07;;;5.90;99.90;;;;;;5129340;27;20595;-85
2020/12/30 11:13:10;;;;;;;3.17;2.97;;;6.00;99.90;;;;;;5128810;27;20206;-82
2020/12/30 11:15:36;;;;;;;2.83;2.63;;;6.10;99.90;;;;;;5129711;27;20233;-82
2020/12/30 11:18:04;;;;;;;3.93;2.50;;;6.00;99.90;;;;;;5132505;27;20206;-82
2020/12/30 11:20:30;;;;;;;3.33;3.00;;;6.10;99.90;;;;;;5132578;27;20733;-83
2020/12/30 11:22:57;;;;;;;3.27;3.07;;;6.20;99.90;;;;;;5132234;27;20198;-82
2020/12/30 11:25:23;;;;;;;3.27;2.97;;;6.20;99.90;;;;;;5132603;27;20234;-82
2020/12/30 11:27:51;;;;;;;2.90;2.70;;;6.30;99.90;;;;;;5132392;27;20201;-83
2020/12/30 11:30:18;;;;;;;3.80;3.40;;;6.30;99.90;;;;;;5133029;27;20240;-81
2020/12/30 11:32:45;;;;;;;3.47;3.17;;;6.40;99.90;;;;;;5132783;27;20201;-82
2020/12/30 11:35:12;;;;;;;3.80;3.00;;;6.40;99.90;;;;;;5132704;27;20229;-82
2020/12/30 11:37:38;;;;;;;3.23;3.03;;;6.40;99.90;;;;;;5132790;27;20201;-82
2020/12/30 11:40:06;;;;;;;3.07;2.87;;;6.50;99.90;;;;;;5132669;27;20316;-82
2020/12/30 11:42:32;;;;;;;3.40;3.10;;;6.60;99.90;;;;;;5132523;27;20219;-81
2020/12/30 11:44:59;;;;;;;3.70;3.43;;;6.70;99.90;;;;;;5132239;27;20237;-82
2020/12/30 11:47:25;;;;;;;3.17;2.97;;;6.70;99.90;;;;;;5132530;27;20779;-82
2020/12/30 11:49:52;;;;;;;4.50;3.07;;;6.70;99.90;;;;;;5132129;27;20201;-81
2020/12/30 11:52:19;;;;;;;3.20;2.80;;;6.70;99.90;;;;;;5132228;27;20288;-82
2020/12/30 11:54:46;;;;;;;3.97;3.20;;;6.70;99.90;;;;;;5132401;27;20205;-85
2020/12/30 11:57:12;;;;;;;3.83;3.33;;;6.80;99.90;;;;;;5131896;27;20303;-86
2020/12/30 11:59:39;;;;;;;3.30;3.03;;;6.80;99.90;;;;;;5131894;27;20235;-81
2020/12/30 12:02:05;;;;;;;5.13;3.20;;;6.90;99.90;;;;;;5130661;27;20738;-79
2020/12/30 12:04:35;;;;;;;3.43;2.97;;;6.90;99.90;;;;;;5119169;27;20625;-79
2020/12/30 12:07:02;;;;;;;3.30;3.10;;;6.70;99.90;;;;;;5122075;27;20197;-80
2020/12/30 12:09:29;;;;;;;3.47;3.20;;;6.70;99.90;;;;;;5121269;27;20228;-80
2020/12/30 12:11:56;;;;;;;3.30;3.00;;;6.70;99.90;;;;;;5131326;27;20201;-80
2020/12/30 12:14:23;;;;;;;3.53;3.20;;;6.80;99.90;;;;;;5131168;27;20349;-80
2020/12/30 12:16:53;;;;;;;3.13;2.93;;;6.80;99.90;;;;;;5130249;27;20284;-86
2020/12/30 12:19:19;;;;;;;6.40;5.80;;;6.70;99.90;;;;;;5123902;27;20208;-86
2020/12/30 12:21:46;;;;;;;6.30;5.70;;;6.80;99.90;;;;;;5115670;27;20668;-87
2020/12/30 12:24:13;;;;;;;3.50;3.20;;;6.80;99.90;;;;;;5117857;27;20206;-84
2020/12/30 12:26:40;;;;;;;3.57;3.37;;;6.80;99.90;;;;;;5123329;27;20660;-86
2020/12/30 12:29:47;;;;;;;3.70;3.40;;;6.80;99.90;;;;;;5131292;27;20194;-86
2020/12/30 12:32:14;;;;;;;3.50;3.13;;;6.90;99.90;;;;;;5132531;27;20193;-86
2020/12/30 12:34:42;;;;;;;4.33;3.63;;;7.00;99.90;;;;;;5131848;27;20220;-86
2020/12/30 12:37:10;;;;;;;3.73;3.43;;;6.90;99.90;;;;;;5132343;27;20739;-84
2020/12/30 12:39:37;;;;;;;3.60;3.30;;;7.00;99.90;;;;;;5132547;27;20235;-87
2020/12/30 12:42:05;;;;;;;3.90;3.47;;;7.10;99.90;;;;;;5131684;27;20292;-85
2020/12/30 12:44:32;;;;;;;3.40;3.10;;;7.10;99.90;;;;;;5132575;27;20205;-86
2020/12/30 12:46:58;;;;;;;3.67;3.40;;;7.30;99.90;;;;;;5132773;27;20201;-87
2020/12/30 12:49:25;;;;;;;3.27;2.97;;;7.30;99.90;;;;;;5132530;27;20208;-86
2020/12/30 12:51:53;;;;;;;3.80;3.20;;;7.40;99.90;;;;;;5132423;27;20251;-87
2020/12/30 12:54:19;;;;;;;5.83;3.53;;;7.50;99.90;;;;;;5132732;27;20227;-85
2020/12/30 12:56:46;;;;;;;4.10;3.77;;;7.60;99.90;;;;;;5131537;27;20233;-85
2020/12/30 12:59:13;;;;;;;5.00;4.47;;;7.60;99.90;;;;;;5131585;27;20211;-87
2020/12/30 13:01:45;;;;;;;3.40;3.20;;;7.40;99.90;;;;;;5132527;27;20201;-85